sensor_id;sensor_type;location;lat;lon;timestamp;temperature;humidity
2523;DHT22;1272;53.332;9.860;2022-08-19T00:00:13;19.60;99.90
2523;DHT22;1272;53.332;9.860;2022-08-19T00:02:40;19.60;99.90
2523;DHT22;1272;53.332;9.860;2022-08-19T00:05:07;19.60;24.20
2523;DHT22;1272;53.332;9.860;2022-08-19T00:07:33;19.60;99.90
2523;DHT22;1272;53.332;9.860;2022-08-19T00:09:59;19.60;99.90
2523;DHT22;1272;53.332;9.860;2022-08-19T00:12:25;19.60;99.90
2523;DHT22;1272;53.332;9.860;2022-08-19T00:14:50;19.50;99.90
2523;DHT22;1272;53.332;9.860;2022-08-19T00:17:19;19.50;99.90
2523;DHT22;1272;53.332;9.860;2022-08-19T00:19:45;19.50;99.90
2523;DHT22;1272;53.332;9.860;2022-08-19T00:22:11;19.50;99.90
2523;DHT22;1272;53.332;9.860;2022-08-19T00:24:37;19.40;99.90
2523;DHT22;1272;53.332;9.860;2022-08-19T00:27:04;19.30;1.00
2523;DHT22;1272;53.332;9.860;2022-08-19T00:29:30;19.30;1.00
2523;DHT22;1272;53.332;9.860;2022-08-19T00:31:56;19.30;1.00
2523;DHT22;1272;53.332;9.860;2022-08-19T00:34:24;19.30;1.00
2523;DHT22;1272;53.332;9.860;2022-08-19T00:36:51;19.40;1.00
2523;DHT22;1272;53.332;9.860;2022-08-19T00:39:17;19.30;1.00
2523;DHT22;1272;53.332;9.860;2022-08-19T00:41:44;19.30;1.00
2523;DHT22;1272;53.332;9.860;2022-08-19T00:44:30;19.30;1.00
2523;DHT22;1272;53.332;9.860;2022-08-19T00:46:57;19.20;1.00
2523;DHT22;1272;53.332;9.860;2022-08-19T00:49:37;19.20;1.00
2523;DHT22;1272;53.332;9.860;2022-08-19T00:52:12;19.20;1.00
2523;DHT22;1272;53.332;9.860;2022-08-19T00:54:40;19.20;4.80
2523;DHT22;1272;53.332;9.860;2022-08-19T00:57:09;19.30;1.00
2523;DHT22;1272;53.332;9.860;2022-08-19T00:59:39;19.30;1.00
2523;DHT22;1272;53.332;9.860;2022-08-19T01:02:06;19.30;1.00
2523;DHT22;1272;53.332;9.860;2022-08-19T01:04:32;19.20;1.00
2523;DHT22;1272;53.332;9.860;2022-08-19T01:06:58;19.10;1.00
2523;DHT22;1272;53.332;9.860;2022-08-19T01:09:24;19.10;7.80
2523;DHT22;1272;53.332;9.860;2022-08-19T01:11:51;19.10;22.40
2523;DHT22;1272;53.332;9.860;2022-08-19T01:14:18;19.00;37.30
2523;DHT22;1272;53.332;9.860;2022-08-19T01:16:45;19.00;61.10
2523;DHT22;1272;53.332;9.860;2022-08-19T01:19:31;19.10;56.30
2523;DHT22;1272;53.332;9.860;2022-08-19T01:24:29;19.00;76.40
2523;DHT22;1272;53.332;9.860;2022-08-19T01:26:56;18.90;86.70
2523;DHT22;1272;53.332;9.860;2022-08-19T01:29:21;18.90;99.90
2523;DHT22;1272;53.332;9.860;2022-08-19T01:31:47;19.00;99.90
2523;DHT22;1272;53.332;9.860;2022-08-19T01:34:18;18.90;16.70
2523;DHT22;1272;53.332;9.860;2022-08-19T01:36:46;18.80;88.10
2523;DHT22;1272;53.332;9.860;2022-08-19T01:39:21;18.70;99.90
2523;DHT22;1272;53.332;9.860;2022-08-19T01:41:48;18.70;99.90
2523;DHT22;1272;53.332;9.860;2022-08-19T01:44:15;18.70;99.90
2523;DHT22;1272;53.332;9.860;2022-08-19T01:46:42;18.70;99.90
2523;DHT22;1272;53.332;9.860;2022-08-19T01:49:09;18.70;99.90
2523;DHT22;1272;53.332;9.860;2022-08-19T01:51:35;18.70;99.90
2523;DHT22;1272;53.332;9.860;2022-08-19T01:54:01;18.70;99.90
2523;DHT22;1272;53.332;9.860;2022-08-19T01:56:27;18.70;99.90
2523;DHT22;1272;53.332;9.860;2022-08-19T01:59:00;18.70;99.90
2523;DHT22;1272;53.332;9.860;2022-08-19T02:01:26;18.60;99.90
2523;DHT22;1272;53.332;9.860;2022-08-19T02:03:53;18.60;99.90
2523;DHT22;1272;53.332;9.860;2022-08-19T02:06:20;18.50;99.90
2523;DHT22;1272;53.332;9.860;2022-08-19T02:08:46;18.50;99.90
2523;DHT22;1272;53.332;9.860;2022-08-19T02:11:23;18.40;99.90
2523;DHT22;1272;53.332;9.860;2022-08-19T02:13:52;18.50;99.90
2523;DHT22;1272;53.332;9.860;2022-08-19T02:16:19;18.50;99.90
2523;DHT22;1272;53.332;9.860;2022-08-19T02:18:46;18.50;99.90
2523;DHT22;1272;53.332;9.860;2022-08-19T02:21:17;18.50;99.90
2523;DHT22;1272;53.332;9.860;2022-08-19T02:23:43;18.50;99.90
2523;DHT22;1272;53.332;9.860;2022-08-19T02:26:10;18.50;99.90
2523;DHT22;1272;53.332;9.860;2022-08-19T02:28:36;18.50;99.90
2523;DHT22;1272;53.332;9.860;2022-08-19T02:31:02;18.60;99.90
2523;DHT22;1272;53.332;9.860;2022-08-19T02:33:28;18.60;99.90
2523;DHT22;1272;53.332;9.860;2022-08-19T02:35:54;18.60;99.90
2523;DHT22;1272;53.332;9.860;2022-08-19T02:38:20;18.60;99.90
2523;DHT22;1272;53.332;9.860;2022-08-19T02:40:57;18.60;99.90
2523;DHT22;1272;53.332;9.860;2022-08-19T02:43:24;18.70;99.90
2523;DHT22;1272;53.332;9.860;2022-08-19T02:45:51;18.70;99.90
2523;DHT22;1272;53.332;9.860;2022-08-19T02:48:22;18.70;99.90
2523;DHT22;1272;53.332;9.860;2022-08-19T02:50:50;18.70;99.90
2523;DHT22;1272;53.332;9.860;2022-08-19T02:53:21;18.70;99.90
2523;DHT22;1272;53.332;9.860;2022-08-19T02:55:49;18.80;99.90
2523;DHT22;1272;53.332;9.860;2022-08-19T02:58:15;18.70;99.90
2523;DHT22;1272;53.332;9.860;2022-08-19T03:00:46;18.80;99.90
2523;DHT22;1272;53.332;9.860;2022-08-19T03:03:12;18.80;99.90
2523;DHT22;1272;53.332;9.860;2022-08-19T03:05:39;18.80;99.90
2523;DHT22;1272;53.332;9.860;2022-08-19T03:08:06;18.80;99.90
2523;DHT22;1272;53.332;9.860;2022-08-19T03:10:32;18.80;99.90
2523;DHT22;1272;53.332;9.860;2022-08-19T03:12:58;18.80;91.20
2523;DHT22;1272;53.332;9.860;2022-08-19T03:15:24;18.80;97.00
2523;DHT22;1272;53.332;9.860;2022-08-19T03:17:50;18.80;99.90
2523;DHT22;1272;53.332;9.860;2022-08-19T03:20:15;18.80;99.90
2523;DHT22;1272;53.332;9.860;2022-08-19T03:22:41;18.80;99.90
2523;DHT22;1272;53.332;9.860;2022-08-19T03:25:07;18.70;99.90
2523;DHT22;1272;53.332;9.860;2022-08-19T03:27:33;18.70;99.90
2523;DHT22;1272;53.332;9.860;2022-08-19T03:29:59;18.70;99.90
2523;DHT22;1272;53.332;9.860;2022-08-19T03:32:24;18.70;99.90
2523;DHT22;1272;53.332;9.860;2022-08-19T03:34:50;18.80;99.90
2523;DHT22;1272;53.332;9.860;2022-08-19T03:37:17;18.80;99.20
2523;DHT22;1272;53.332;9.860;2022-08-19T03:39:43;18.80;99.90
2523;DHT22;1272;53.332;9.860;2022-08-19T03:42:09;18.70;99.90
2523;DHT22;1272;53.332;9.860;2022-08-19T03:44:35;18.70;99.90
2523;DHT22;1272;53.332;9.860;2022-08-19T03:47:03;18.70;99.90
2523;DHT22;1272;53.332;9.860;2022-08-19T03:49:31;18.70;99.90
2523;DHT22;1272;53.332;9.860;2022-08-19T03:51:58;18.70;99.90
2523;DHT22;1272;53.332;9.860;2022-08-19T03:54:26;18.70;99.90
2523;DHT22;1272;53.332;9.860;2022-08-19T03:56:54;18.70;99.90
2523;DHT22;1272;53.332;9.860;2022-08-19T03:59:31;18.60;99.90
2523;DHT22;1272;53.332;9.860;2022-08-19T04:02:00;18.70;99.90
2523;DHT22;1272;53.332;9.860;2022-08-19T04:04:26;18.70;99.90
2523;DHT22;1272;53.332;9.860;2022-08-19T04:06:52;18.60;99.90
2523;DHT22;1272;53.332;9.860;2022-08-19T04:09:19;18.60;99.90
2523;DHT22;1272;53.332;9.860;2022-08-19T04:11:47;18.60;99.90
2523;DHT22;1272;53.332;9.860;2022-08-19T04:14:17;18.60;99.90
2523;DHT22;1272;53.332;9.860;2022-08-19T04:16:44;18.50;99.90
2523;DHT22;1272;53.332;9.860;2022-08-19T04:19:11;18.50;99.90
2523;DHT22;1272;53.332;9.860;2022-08-19T04:21:37;18.50;99.90
2523;DHT22;1272;53.332;9.860;2022-08-19T04:24:03;18.50;99.90
2523;DHT22;1272;53.332;9.860;2022-08-19T04:26:35;18.50;99.90
2523;DHT22;1272;53.332;9.860;2022-08-19T04:29:04;18.40;99.90
2523;DHT22;1272;53.332;9.860;2022-08-19T04:31:32;18.50;99.90
2523;DHT22;1272;53.332;9.860;2022-08-19T04:34:03;18.50;99.90
2523;DHT22;1272;53.332;9.860;2022-08-19T04:36:33;18.50;99.90
2523;DHT22;1272;53.332;9.860;2022-08-19T04:39:02;18.50;99.90
2523;DHT22;1272;53.332;9.860;2022-08-19T04:41:29;18.50;99.90
2523;DHT22;1272;53.332;9.860;2022-08-19T04:44:13;18.50;99.90
2523;DHT22;1272;53.332;9.860;2022-08-19T04:46:40;18.50;99.90
2523;DHT22;1272;53.332;9.860;2022-08-19T04:49:06;18.50;99.90
2523;DHT22;1272;53.332;9.860;2022-08-19T04:51:34;18.60;99.90
2523;DHT22;1272;53.332;9.860;2022-08-19T04:54:01;18.60;99.90
2523;DHT22;1272;53.332;9.860;2022-08-19T04:56:28;18.60;99.90
2523;DHT22;1272;53.332;9.860;2022-08-19T04:58:55;18.70;99.90
2523;DHT22;1272;53.332;9.860;2022-08-19T05:01:24;18.60;99.90
2523;DHT22;1272;53.332;9.860;2022-08-19T05:03:50;18.70;99.90
2523;DHT22;1272;53.332;9.860;2022-08-19T05:06:18;18.70;99.90
2523;DHT22;1272;53.332;9.860;2022-08-19T05:08:44;18.70;99.90
2523;DHT22;1272;53.332;9.860;2022-08-19T05:11:12;18.70;99.90
2523;DHT22;1272;53.332;9.860;2022-08-19T05:13:38;18.70;99.90
2523;DHT22;1272;53.332;9.860;2022-08-19T05:16:04;18.70;99.90
2523;DHT22;1272;53.332;9.860;2022-08-19T05:18:30;18.70;99.90
2523;DHT22;1272;53.332;9.860;2022-08-19T05:21:16;18.60;99.90
2523;DHT22;1272;53.332;9.860;2022-08-19T05:24:15;18.60;99.90
2523;DHT22;1272;53.332;9.860;2022-08-19T05:26:43;18.60;99.90
2523;DHT22;1272;53.332;9.860;2022-08-19T05:29:10;18.60;99.90
2523;DHT22;1272;53.332;9.860;2022-08-19T05:31:37;18.60;99.90
2523;DHT22;1272;53.332;9.860;2022-08-19T05:34:04;18.60;99.90
2523;DHT22;1272;53.332;9.860;2022-08-19T05:36:35;18.60;99.90
2523;DHT22;1272;53.332;9.860;2022-08-19T05:39:02;18.60;99.90
2523;DHT22;1272;53.332;9.860;2022-08-19T05:41:28;18.50;99.90
2523;DHT22;1272;53.332;9.860;2022-08-19T05:44:03;18.50;99.90
2523;DHT22;1272;53.332;9.860;2022-08-19T05:46:31;18.60;99.90
2523;DHT22;1272;53.332;9.860;2022-08-19T05:48:57;18.50;99.90
2523;DHT22;1272;53.332;9.860;2022-08-19T05:51:24;18.60;99.90
2523;DHT22;1272;53.332;9.860;2022-08-19T05:53:50;18.60;99.90
2523;DHT22;1272;53.332;9.860;2022-08-19T05:56:16;18.60;99.90
2523;DHT22;1272;53.332;9.860;2022-08-19T05:58:44;18.60;99.90
2523;DHT22;1272;53.332;9.860;2022-08-19T06:01:15;18.70;99.90
2523;DHT22;1272;53.332;9.860;2022-08-19T06:03:42;18.70;99.90
2523;DHT22;1272;53.332;9.860;2022-08-19T06:06:09;18.60;99.90
2523;DHT22;1272;53.332;9.860;2022-08-19T06:08:36;18.70;99.90
2523;DHT22;1272;53.332;9.860;2022-08-19T06:11:21;18.70;99.90
2523;DHT22;1272;53.332;9.860;2022-08-19T06:13:49;18.70;99.90
2523;DHT22;1272;53.332;9.860;2022-08-19T06:16:17;18.70;99.90
2523;DHT22;1272;53.332;9.860;2022-08-19T06:18:51;18.70;99.90
2523;DHT22;1272;53.332;9.860;2022-08-19T06:21:21;18.60;99.90
2523;DHT22;1272;53.332;9.860;2022-08-19T06:23:48;18.60;99.90
2523;DHT22;1272;53.332;9.860;2022-08-19T06:26:15;18.50;99.90
2523;DHT22;1272;53.332;9.860;2022-08-19T06:28:40;18.50;99.90
2523;DHT22;1272;53.332;9.860;2022-08-19T06:31:16;18.50;99.90
2523;DHT22;1272;53.332;9.860;2022-08-19T06:33:45;18.50;99.90
2523;DHT22;1272;53.332;9.860;2022-08-19T06:36:22;18.60;99.90
2523;DHT22;1272;53.332;9.860;2022-08-19T06:38:53;18.60;99.90
2523;DHT22;1272;53.332;9.860;2022-08-19T06:41:18;18.60;99.90
2523;DHT22;1272;53.332;9.860;2022-08-19T06:43:44;18.60;99.90
2523;DHT22;1272;53.332;9.860;2022-08-19T06:46:14;18.70;99.90
2523;DHT22;1272;53.332;9.860;2022-08-19T06:48:40;18.60;99.90
2523;DHT22;1272;53.332;9.860;2022-08-19T06:51:06;18.60;99.90
2523;DHT22;1272;53.332;9.860;2022-08-19T06:53:33;18.60;99.90
2523;DHT22;1272;53.332;9.860;2022-08-19T06:55:59;18.60;99.90
2523;DHT22;1272;53.332;9.860;2022-08-19T06:58:29;18.70;99.90
2523;DHT22;1272;53.332;9.860;2022-08-19T07:00:59;18.70;99.90
2523;DHT22;1272;53.332;9.860;2022-08-19T07:03:31;18.70;99.90
2523;DHT22;1272;53.332;9.860;2022-08-19T07:06:09;18.70;99.90
2523;DHT22;1272;53.332;9.860;2022-08-19T07:08:37;18.70;99.90
2523;DHT22;1272;53.332;9.860;2022-08-19T07:11:08;18.70;99.90
2523;DHT22;1272;53.332;9.860;2022-08-19T07:13:35;18.70;99.90
2523;DHT22;1272;53.332;9.860;2022-08-19T07:16:08;18.80;99.90
2523;DHT22;1272;53.332;9.860;2022-08-19T07:18:35;18.80;99.90
2523;DHT22;1272;53.332;9.860;2022-08-19T07:21:05;18.80;99.90
2523;DHT22;1272;53.332;9.860;2022-08-19T07:23:31;18.90;99.90
2523;DHT22;1272;53.332;9.860;2022-08-19T07:25:57;18.90;99.90
2523;DHT22;1272;53.332;9.860;2022-08-19T07:28:23;18.90;99.90
2523;DHT22;1272;53.332;9.860;2022-08-19T07:30:49;19.00;99.90
2523;DHT22;1272;53.332;9.860;2022-08-19T07:33:16;19.00;99.90
2523;DHT22;1272;53.332;9.860;2022-08-19T07:35:42;19.00;99.90
2523;DHT22;1272;53.332;9.860;2022-08-19T07:38:09;19.00;99.90
2523;DHT22;1272;53.332;9.860;2022-08-19T07:40:35;19.00;99.90
2523;DHT22;1272;53.332;9.860;2022-08-19T07:43:01;18.90;99.90
2523;DHT22;1272;53.332;9.860;2022-08-19T07:45:27;18.90;99.90
2523;DHT22;1272;53.332;9.860;2022-08-19T07:47:54;19.00;99.90
2523;DHT22;1272;53.332;9.860;2022-08-19T07:50:20;18.90;99.90
2523;DHT22;1272;53.332;9.860;2022-08-19T07:52:47;18.90;99.90
2523;DHT22;1272;53.332;9.860;2022-08-19T07:55:16;18.90;99.90
2523;DHT22;1272;53.332;9.860;2022-08-19T07:57:42;18.90;99.90
2523;DHT22;1272;53.332;9.860;2022-08-19T08:00:08;18.90;99.90
2523;DHT22;1272;53.332;9.860;2022-08-19T08:02:34;18.80;99.90
2523;DHT22;1272;53.332;9.860;2022-08-19T08:05:00;18.80;99.90
2523;DHT22;1272;53.332;9.860;2022-08-19T08:07:44;18.90;99.90
2523;DHT22;1272;53.332;9.860;2022-08-19T08:10:28;18.90;99.90
2523;DHT22;1272;53.332;9.860;2022-08-19T08:12:54;18.90;99.90
2523;DHT22;1272;53.332;9.860;2022-08-19T08:15:20;18.90;99.90
2523;DHT22;1272;53.332;9.860;2022-08-19T08:17:46;19.00;99.90
2523;DHT22;1272;53.332;9.860;2022-08-19T08:20:14;18.90;99.90
2523;DHT22;1272;53.332;9.860;2022-08-19T08:22:44;19.00;99.90
2523;DHT22;1272;53.332;9.860;2022-08-19T08:25:28;19.00;99.90
2523;DHT22;1272;53.332;9.860;2022-08-19T08:27:55;19.00;99.90
2523;DHT22;1272;53.332;9.860;2022-08-19T08:30:23;18.90;99.90
2523;DHT22;1272;53.332;9.860;2022-08-19T08:32:50;18.90;99.90
2523;DHT22;1272;53.332;9.860;2022-08-19T08:35:20;18.90;99.90
2523;DHT22;1272;53.332;9.860;2022-08-19T08:37:47;19.00;99.90
2523;DHT22;1272;53.332;9.860;2022-08-19T08:40:23;19.00;99.90
2523;DHT22;1272;53.332;9.860;2022-08-19T08:46:15;19.10;99.90
2523;DHT22;1272;53.332;9.860;2022-08-19T08:51:32;19.30;99.90
2523;DHT22;1272;53.332;9.860;2022-08-19T08:53:59;19.30;99.90
2523;DHT22;1272;53.332;9.860;2022-08-19T08:56:25;19.30;99.90
2523;DHT22;1272;53.332;9.860;2022-08-19T09:01:22;19.20;99.90
2523;DHT22;1272;53.332;9.860;2022-08-19T09:03:47;19.20;99.90
2523;DHT22;1272;53.332;9.860;2022-08-19T09:06:32;19.20;99.90
2523;DHT22;1272;53.332;9.860;2022-08-19T09:09:48;19.30;99.90
2523;DHT22;1272;53.332;9.860;2022-08-19T09:12:21;19.20;99.90
2523;DHT22;1272;53.332;9.860;2022-08-19T09:14:53;19.30;99.90
2523;DHT22;1272;53.332;9.860;2022-08-19T09:17:24;19.30;99.90
2523;DHT22;1272;53.332;9.860;2022-08-19T09:20:02;19.40;99.90
2523;DHT22;1272;53.332;9.860;2022-08-19T09:22:38;19.50;99.90
2523;DHT22;1272;53.332;9.860;2022-08-19T09:25:07;19.60;99.90
2523;DHT22;1272;53.332;9.860;2022-08-19T09:27:33;19.60;99.90
2523;DHT22;1272;53.332;9.860;2022-08-19T09:30:02;19.60;99.90
2523;DHT22;1272;53.332;9.860;2022-08-19T09:32:30;19.70;99.90
2523;DHT22;1272;53.332;9.860;2022-08-19T09:34:56;19.80;99.90
2523;DHT22;1272;53.332;9.860;2022-08-19T09:37:23;19.80;99.90
2523;DHT22;1272;53.332;9.860;2022-08-19T09:39:50;19.90;81.40
2523;DHT22;1272;53.332;9.860;2022-08-19T09:42:16;19.90;99.90
2523;DHT22;1272;53.332;9.860;2022-08-19T09:44:43;20.00;90.90
2523;DHT22;1272;53.332;9.860;2022-08-19T09:47:11;20.10;77.80
2523;DHT22;1272;53.332;9.860;2022-08-19T09:49:38;20.40;55.80
2523;DHT22;1272;53.332;9.860;2022-08-19T09:52:05;20.70;1.00
2523;DHT22;1272;53.332;9.860;2022-08-19T09:54:31;20.70;1.00
2523;DHT22;1272;53.332;9.860;2022-08-19T09:56:58;20.80;1.00
2523;DHT22;1272;53.332;9.860;2022-08-19T09:59:26;21.00;1.00
2523;DHT22;1272;53.332;9.860;2022-08-19T10:01:52;21.10;99.90
2523;DHT22;1272;53.332;9.860;2022-08-19T10:04:20;21.00;99.90
2523;DHT22;1272;53.332;9.860;2022-08-19T10:06:47;21.00;1.00
2523;DHT22;1272;53.332;9.860;2022-08-19T10:09:15;21.00;1.00
2523;DHT22;1272;53.332;9.860;2022-08-19T10:11:43;21.00;1.00
2523;DHT22;1272;53.332;9.860;2022-08-19T10:14:13;21.00;99.90
2523;DHT22;1272;53.332;9.860;2022-08-19T10:16:39;21.10;1.00
2523;DHT22;1272;53.332;9.860;2022-08-19T10:19:06;21.30;1.00
2523;DHT22;1272;53.332;9.860;2022-08-19T10:21:33;21.40;99.90
2523;DHT22;1272;53.332;9.860;2022-08-19T10:24:02;21.60;99.90
2523;DHT22;1272;53.332;9.860;2022-08-19T10:26:32;21.70;1.00
2523;DHT22;1272;53.332;9.860;2022-08-19T10:28:59;21.60;14.20
2523;DHT22;1272;53.332;9.860;2022-08-19T10:31:28;21.70;1.00
2523;DHT22;1272;53.332;9.860;2022-08-19T10:33:56;21.70;1.00
2523;DHT22;1272;53.332;9.860;2022-08-19T10:36:33;21.60;1.00
2523;DHT22;1272;53.332;9.860;2022-08-19T10:39:05;21.60;1.90
2523;DHT22;1272;53.332;9.860;2022-08-19T10:41:34;21.40;99.90
2523;DHT22;1272;53.332;9.860;2022-08-19T10:44:03;21.40;62.80
2523;DHT22;1272;53.332;9.860;2022-08-19T10:46:30;21.30;99.90
2523;DHT22;1272;53.332;9.860;2022-08-19T10:48:59;21.30;1.00
2523;DHT22;1272;53.332;9.860;2022-08-19T10:51:25;21.30;99.90
2523;DHT22;1272;53.332;9.860;2022-08-19T10:54:10;21.40;99.90
2523;DHT22;1272;53.332;9.860;2022-08-19T10:56:36;21.50;99.90
2523;DHT22;1272;53.332;9.860;2022-08-19T11:01:45;21.60;1.00
2523;DHT22;1272;53.332;9.860;2022-08-19T11:04:12;21.50;99.90
2523;DHT22;1272;53.332;9.860;2022-08-19T11:06:42;21.40;99.90
2523;DHT22;1272;53.332;9.860;2022-08-19T11:09:09;21.40;25.80
2523;DHT22;1272;53.332;9.860;2022-08-19T11:11:37;21.40;99.90
2523;DHT22;1272;53.332;9.860;2022-08-19T11:14:11;21.50;87.10
2523;DHT22;1272;53.332;9.860;2022-08-19T11:16:38;21.60;99.90
2523;DHT22;1272;53.332;9.860;2022-08-19T11:19:06;21.70;99.90
2523;DHT22;1272;53.332;9.860;2022-08-19T11:21:35;21.70;1.00
2523;DHT22;1272;53.332;9.860;2022-08-19T11:24:05;21.70;99.90
2523;DHT22;1272;53.332;9.860;2022-08-19T11:26:33;21.70;99.90
2523;DHT22;1272;53.332;9.860;2022-08-19T11:29:00;21.90;1.00
2523;DHT22;1272;53.332;9.860;2022-08-19T11:31:29;22.00;99.90
2523;DHT22;1272;53.332;9.860;2022-08-19T11:34:00;22.10;99.90
2523;DHT22;1272;53.332;9.860;2022-08-19T11:36:27;22.30;1.00
2523;DHT22;1272;53.332;9.860;2022-08-19T11:38:53;22.60;1.00
2523;DHT22;1272;53.332;9.860;2022-08-19T11:41:20;22.90;1.00
2523;DHT22;1272;53.332;9.860;2022-08-19T11:43:48;23.10;99.90
2523;DHT22;1272;53.332;9.860;2022-08-19T11:46:15;23.30;99.90
2523;DHT22;1272;53.332;9.860;2022-08-19T11:48:41;23.40;99.90
2523;DHT22;1272;53.332;9.860;2022-08-19T11:51:11;23.40;99.90
2523;DHT22;1272;53.332;9.860;2022-08-19T11:53:38;23.30;1.00
2523;DHT22;1272;53.332;9.860;2022-08-19T11:56:06;23.20;1.00
2523;DHT22;1272;53.332;9.860;2022-08-19T11:58:32;23.20;1.00
2523;DHT22;1272;53.332;9.860;2022-08-19T12:00:58;23.00;1.00
2523;DHT22;1272;53.332;9.860;2022-08-19T12:03:24;22.60;2.40
2523;DHT22;1272;53.332;9.860;2022-08-19T12:05:50;22.40;99.90
2523;DHT22;1272;53.332;9.860;2022-08-19T12:08:17;22.50;99.90
2523;DHT22;1272;53.332;9.860;2022-08-19T12:10:44;22.80;1.00
2523;DHT22;1272;53.332;9.860;2022-08-19T12:13:10;23.30;99.90
2523;DHT22;1272;53.332;9.860;2022-08-19T12:15:40;23.70;99.90
2523;DHT22;1272;53.332;9.860;2022-08-19T12:18:07;24.00;99.90
2523;DHT22;1272;53.332;9.860;2022-08-19T12:20:38;24.20;1.00
2523;DHT22;1272;53.332;9.860;2022-08-19T12:23:06;24.20;1.00
2523;DHT22;1272;53.332;9.860;2022-08-19T12:25:32;24.20;25.50
2523;DHT22;1272;53.332;9.860;2022-08-19T12:27:58;24.30;1.00
2523;DHT22;1272;53.332;9.860;2022-08-19T12:30:25;24.30;1.00
2523;DHT22;1272;53.332;9.860;2022-08-19T12:32:51;24.30;1.00
2523;DHT22;1272;53.332;9.860;2022-08-19T12:35:20;24.20;99.90
2523;DHT22;1272;53.332;9.860;2022-08-19T12:37:47;24.00;1.00
2523;DHT22;1272;53.332;9.860;2022-08-19T12:40:15;24.10;99.90
2523;DHT22;1272;53.332;9.860;2022-08-19T12:42:41;24.10;1.00
2523;DHT22;1272;53.332;9.860;2022-08-19T12:45:12;24.20;1.00
2523;DHT22;1272;53.332;9.860;2022-08-19T12:47:39;24.40;1.00
2523;DHT22;1272;53.332;9.860;2022-08-19T12:50:06;24.40;99.90
2523;DHT22;1272;53.332;9.860;2022-08-19T12:52:35;24.40;99.90
2523;DHT22;1272;53.332;9.860;2022-08-19T12:55:04;24.30;99.90
2523;DHT22;1272;53.332;9.860;2022-08-19T12:57:31;24.30;1.00
2523;DHT22;1272;53.332;9.860;2022-08-19T13:00:13;24.30;99.90
2523;DHT22;1272;53.332;9.860;2022-08-19T13:02:42;24.40;1.00
2523;DHT22;1272;53.332;9.860;2022-08-19T13:05:12;24.30;99.90
2523;DHT22;1272;53.332;9.860;2022-08-19T13:07:39;24.20;99.90
2523;DHT22;1272;53.332;9.860;2022-08-19T13:10:06;24.30;99.90
2523;DHT22;1272;53.332;9.860;2022-08-19T13:12:32;24.40;99.90
2523;DHT22;1272;53.332;9.860;2022-08-19T13:14:58;24.40;99.90
2523;DHT22;1272;53.332;9.860;2022-08-19T13:17:24;24.30;99.90
2523;DHT22;1272;53.332;9.860;2022-08-19T13:19:49;24.30;99.90
2523;DHT22;1272;53.332;9.860;2022-08-19T13:22:16;24.40;99.90
2523;DHT22;1272;53.332;9.860;2022-08-19T13:24:42;24.10;99.90
2523;DHT22;1272;53.332;9.860;2022-08-19T13:27:08;24.20;1.00
2523;DHT22;1272;53.332;9.860;2022-08-19T13:29:34;24.40;1.00
2523;DHT22;1272;53.332;9.860;2022-08-19T13:32:18;24.60;99.90
2523;DHT22;1272;53.332;9.860;2022-08-19T13:35:03;24.70;99.90
2523;DHT22;1272;53.332;9.860;2022-08-19T13:37:29;24.80;99.90
2523;DHT22;1272;53.332;9.860;2022-08-19T13:40:13;24.80;99.90
2523;DHT22;1272;53.332;9.860;2022-08-19T13:42:43;24.80;99.90
2523;DHT22;1272;53.332;9.860;2022-08-19T13:45:09;24.60;99.90
2523;DHT22;1272;53.332;9.860;2022-08-19T13:47:36;24.60;1.00
2523;DHT22;1272;53.332;9.860;2022-08-19T13:50:09;24.50;99.90
2523;DHT22;1272;53.332;9.860;2022-08-19T13:52:36;24.50;99.90
2523;DHT22;1272;53.332;9.860;2022-08-19T13:55:02;24.60;1.00
2523;DHT22;1272;53.332;9.860;2022-08-19T13:57:29;24.60;99.90
2523;DHT22;1272;53.332;9.860;2022-08-19T13:59:56;24.60;99.90
2523;DHT22;1272;53.332;9.860;2022-08-19T14:02:23;24.50;99.90
2523;DHT22;1272;53.332;9.860;2022-08-19T14:04:49;24.50;99.90
2523;DHT22;1272;53.332;9.860;2022-08-19T14:07:14;24.40;99.90
2523;DHT22;1272;53.332;9.860;2022-08-19T14:09:40;24.50;1.00
2523;DHT22;1272;53.332;9.860;2022-08-19T14:12:06;24.50;99.90
2523;DHT22;1272;53.332;9.860;2022-08-19T14:14:32;24.50;99.90
2523;DHT22;1272;53.332;9.860;2022-08-19T14:17:01;24.70;99.90
2523;DHT22;1272;53.332;9.860;2022-08-19T14:19:26;24.80;99.90
2523;DHT22;1272;53.332;9.860;2022-08-19T14:21:52;25.20;69.50
2523;DHT22;1272;53.332;9.860;2022-08-19T14:24:18;25.60;1.00
2523;DHT22;1272;53.332;9.860;2022-08-19T14:26:44;25.80;1.00
2523;DHT22;1272;53.332;9.860;2022-08-19T14:29:09;25.70;1.00
2523;DHT22;1272;53.332;9.860;2022-08-19T14:31:35;25.70;1.00
2523;DHT22;1272;53.332;9.860;2022-08-19T14:34:01;25.60;1.00
2523;DHT22;1272;53.332;9.860;2022-08-19T14:36:26;25.60;1.00
2523;DHT22;1272;53.332;9.860;2022-08-19T14:38:52;25.80;1.00
2523;DHT22;1272;53.332;9.860;2022-08-19T14:41:22;26.10;1.00
2523;DHT22;1272;53.332;9.860;2022-08-19T14:43:50;26.20;1.00
2523;DHT22;1272;53.332;9.860;2022-08-19T14:46:21;26.00;99.90
2523;DHT22;1272;53.332;9.860;2022-08-19T14:48:48;25.60;1.00
2523;DHT22;1272;53.332;9.860;2022-08-19T14:51:15;25.40;1.00
2523;DHT22;1272;53.332;9.860;2022-08-19T14:53:41;25.20;1.00
2523;DHT22;1272;53.332;9.860;2022-08-19T14:56:12;25.30;1.00
2523;DHT22;1272;53.332;9.860;2022-08-19T14:58:40;25.20;1.00
2523;DHT22;1272;53.332;9.860;2022-08-19T15:01:06;25.10;1.00
2523;DHT22;1272;53.332;9.860;2022-08-19T15:03:32;25.10;1.00
2523;DHT22;1272;53.332;9.860;2022-08-19T15:06:00;25.00;1.00
2523;DHT22;1272;53.332;9.860;2022-08-19T15:08:28;24.90;1.00
2523;DHT22;1272;53.332;9.860;2022-08-19T15:10:54;24.90;1.00
2523;DHT22;1272;53.332;9.860;2022-08-19T15:13:20;24.90;1.00
2523;DHT22;1272;53.332;9.860;2022-08-19T15:15:47;25.30;1.00
2523;DHT22;1272;53.332;9.860;2022-08-19T15:18:13;25.60;1.00
2523;DHT22;1272;53.332;9.860;2022-08-19T15:20:39;25.80;99.90
2523;DHT22;1272;53.332;9.860;2022-08-19T15:23:05;25.80;99.90
2523;DHT22;1272;53.332;9.860;2022-08-19T15:25:31;25.90;99.90
2523;DHT22;1272;53.332;9.860;2022-08-19T15:27:58;26.00;99.90
2523;DHT22;1272;53.332;9.860;2022-08-19T15:30:27;26.40;99.90
2523;DHT22;1272;53.332;9.860;2022-08-19T15:32:54;26.90;99.90
2523;DHT22;1272;53.332;9.860;2022-08-19T15:35:21;27.40;99.90
2523;DHT22;1272;53.332;9.860;2022-08-19T15:37:52;27.80;99.90
2523;DHT22;1272;53.332;9.860;2022-08-19T15:40:19;27.90;99.90
2523;DHT22;1272;53.332;9.860;2022-08-19T15:42:45;28.00;99.90
2523;DHT22;1272;53.332;9.860;2022-08-19T15:45:13;28.10;99.90
2523;DHT22;1272;53.332;9.860;2022-08-19T15:47:39;28.20;99.90
2523;DHT22;1272;53.332;9.860;2022-08-19T15:50:08;28.30;99.90
2523;DHT22;1272;53.332;9.860;2022-08-19T15:52:34;28.20;99.90
2523;DHT22;1272;53.332;9.860;2022-08-19T15:55:00;28.50;99.90
2523;DHT22;1272;53.332;9.860;2022-08-19T15:57:27;28.70;95.90
2523;DHT22;1272;53.332;9.860;2022-08-19T15:59:53;28.60;99.90
2523;DHT22;1272;53.332;9.860;2022-08-19T16:02:37;28.60;97.90
2523;DHT22;1272;53.332;9.860;2022-08-19T16:05:25;28.60;99.90
2523;DHT22;1272;53.332;9.860;2022-08-19T16:08:09;28.70;86.20
2523;DHT22;1272;53.332;9.860;2022-08-19T16:10:37;28.50;82.10
2523;DHT22;1272;53.332;9.860;2022-08-19T16:13:03;28.30;72.70
2523;DHT22;1272;53.332;9.860;2022-08-19T16:15:30;28.10;68.40
2523;DHT22;1272;53.332;9.860;2022-08-19T16:17:58;28.10;67.60
2523;DHT22;1272;53.332;9.860;2022-08-19T16:20:28;27.80;73.90
2523;DHT22;1272;53.332;9.860;2022-08-19T16:22:55;27.70;80.40
2523;DHT22;1272;53.332;9.860;2022-08-19T16:25:23;27.50;90.70